Observations de surface / UK / EGSC

Québec | Canada | États-Unis | France | UK | Europe | Ailleurs

Affichage: Infos & localisation pour EGSC | Aide pour décoder les METARs

EGSC CAMBRIDGE -- UK
Raw surface observations for station EGSC
EGSC 211720Z 12003KT 9999 SCT020 01/M01 Q1026=
EGSC 211650Z 15002KT 9999 FEW020 01/M00 Q1026=
EGSC 211620Z 14004KT 9999 FEW018 02/M00 Q1026=
EGSC 211550Z 12004KT 070V160 9999 FEW018 05/01 Q1026=
EGSC 211520Z VRB02KT 9999 SCT018 04/02 Q1026=
EGSC 211450Z 09005KT 060V120 9999 SCT018 05/02 Q1026=
EGSC 211420Z 08006KT 050V120 9999 BKN016 06/03 Q1026=
EGSC 211350Z 09006KT 050V130 9999 BKN016 06/03 Q1026=
EGSC 211320Z 08006KT 040V140 9999 BKN015 05/03 Q1027=
EGSC 211250Z 06006KT 030V090 9999 BKN014 05/03 Q1027=
EGSC 211220Z 05005KT 9999 BKN014 04/03 Q1028=
EGSC 211150Z 06004KT 030V100 9999 BKN015 04/03 Q1028=
EGSC 211120Z 05004KT 9999 BKN014 04/03 Q1029=
EGSC 211050Z 04005KT 9999 BKN015 04/02 Q1029=
EGSC 211020Z 04004KT 9999 BKN013 03/02 Q1029=
EGSC 210950Z 04005KT 9999 BKN013 03/02 Q1029=
EGSC 210920Z 04004KT 9000 BKN014 02/02 Q1029=
EGSC 210850Z 04005KT 8000 BKN014 02/01 Q1029=
EGSC 210820Z 05004KT 7000 3000S BKN014 01/01 Q1029=
EGSC 210750Z VRB02KT 5000 1000S PRFG BKN014 M01/M02 Q1029=
EGSC 201750Z 06004KT CAVOK 02/M01 Q1033=
EGSC 201720Z 05003KT CAVOK 02/M01 Q1033=